createdAt,value
2022-08-10T00:00:15.790Z,17.09
2022-08-10T00:03:17.687Z,16.99
2022-08-10T00:06:19.577Z,16.93
2022-08-10T00:09:23.907Z,16.85
2022-08-10T00:12:53.388Z,16.86
2022-08-10T00:15:54.108Z,16.84
2022-08-10T00:18:56.661Z,16.76
2022-08-10T00:21:58.764Z,16.71
2022-08-10T00:25:00.896Z,16.58
2022-08-10T00:28:04.296Z,16.56
2022-08-10T00:31:07.322Z,16.51
2022-08-10T00:34:09.231Z,16.51
2022-08-10T00:37:11.127Z,16.55
2022-08-10T00:40:13.654Z,16.48
2022-08-10T00:43:15.620Z,16.52
2022-08-10T00:46:25.675Z,16.32
2022-08-10T00:49:28.715Z,16.39
2022-08-10T00:52:31.519Z,16.42
2022-08-10T00:55:33.957Z,16.37
2022-08-10T00:58:55.777Z,16.32
2022-08-10T01:02:09.045Z,16.29
2022-08-10T01:05:19.939Z,16.23
2022-08-10T01:08:30.903Z,16.24
2022-08-10T01:12:38.673Z,16.19
2022-08-10T01:15:30.859Z,16.05
2022-08-10T01:18:41.022Z,16.07
2022-08-10T01:22:20.973Z,16.09
2022-08-10T01:26:12.562Z,16.07
2022-08-10T01:29:43.454Z,15.99
2022-08-10T01:33:04.210Z,15.90
2022-08-10T01:36:11.942Z,15.98
2022-08-10T01:39:19.884Z,16.13
2022-08-10T01:42:23.088Z,16.06
2022-08-10T01:45:25.835Z,16.05
2022-08-10T01:48:32.471Z,15.92
2022-08-10T01:51:39.688Z,15.98
2022-08-10T02:03:28.398Z,16.07
2022-08-10T02:06:31.442Z,16.09
2022-08-10T02:09:36.794Z,16.06
2022-08-10T02:12:40.085Z,16.10
2022-08-10T02:16:02.035Z,16.08
2022-08-10T02:19:07.596Z,16.10
2022-08-10T02:22:45.696Z,16.09
2022-08-10T02:25:40.960Z,16.14
2022-08-10T02:28:46.173Z,16.06
2022-08-10T02:31:49.575Z,16.11
2022-08-10T02:34:53.790Z,16.04
2022-08-10T02:38:00.641Z,16.02
2022-08-10T02:42:18.623Z,15.95
2022-08-10T02:45:25.475Z,15.98
2022-08-10T02:48:24.087Z,15.96
2022-08-10T02:52:08.190Z,15.87
2022-08-10T02:55:06.101Z,15.90
2022-08-10T02:58:46.404Z,15.92
2022-08-10T03:01:49.909Z,16.00
2022-08-10T03:04:58.318Z,16.15
2022-08-10T03:08:02.838Z,15.99
2022-08-10T03:11:06.620Z,15.89
2022-08-10T03:14:10.418Z,15.78
2022-08-10T03:17:12.824Z,15.73
2022-08-10T03:20:38.057Z,15.61
2022-08-10T03:23:38.480Z,15.59
2022-08-10T03:26:41.097Z,15.47
2022-08-10T03:30:31.931Z,15.48
2022-08-10T03:33:10.458Z,15.43
2022-08-10T03:36:43.119Z,15.40
2022-08-10T03:39:35.973Z,15.44
2022-08-10T03:42:39.206Z,15.50
2022-08-10T03:45:54.492Z,15.56
2022-08-10T03:49:00.918Z,15.55
2022-08-10T03:52:03.558Z,15.50
2022-08-10T03:55:05.915Z,15.54
2022-08-10T03:58:08.271Z,15.58
2022-08-10T04:01:10.579Z,15.73
2022-08-10T04:04:15.463Z,15.81
2022-08-10T04:07:19.773Z,15.85
2022-08-10T04:10:21.797Z,15.87
2022-08-10T04:13:24.121Z,15.67
2022-08-10T04:16:26.002Z,15.77
2022-08-10T04:19:30.277Z,15.73
2022-08-10T04:22:33.202Z,15.82
2022-08-10T04:25:36.613Z,17.39
2022-08-10T04:28:38.737Z,20.31
2022-08-10T04:31:41.521Z,21.76
2022-08-10T04:34:44.657Z,22.27
2022-08-10T04:37:47.874Z,22.73
2022-08-10T04:40:52.885Z,23.43
2022-08-10T04:43:54.868Z,23.47
2022-08-10T04:46:58.243Z,22.14
2022-08-10T04:50:02.395Z,20.59
2022-08-10T04:53:06.976Z,19.76
2022-08-10T04:56:09.042Z,19.12
2022-08-10T04:59:14.362Z,18.81
2022-08-10T05:02:29.581Z,18.65
2022-08-10T05:05:33.708Z,18.75
2022-08-10T05:08:36.179Z,18.87
2022-08-10T05:11:38.032Z,18.97
2022-08-10T05:14:40.003Z,18.99
2022-08-10T05:18:03.337Z,18.96
2022-08-10T05:21:05.578Z,18.99
2022-08-10T05:24:07.745Z,18.93
2022-08-10T05:27:10.654Z,18.89
2022-08-10T05:30:16.425Z,18.74
2022-08-10T05:33:18.527Z,18.81
2022-08-10T05:36:20.779Z,18.77
2022-08-10T05:39:31.980Z,18.76
2022-08-10T05:42:34.511Z,18.94
2022-08-10T05:46:19.267Z,19.03
2022-08-10T05:49:01.967Z,19.29
2022-08-10T05:52:04.673Z,19.09
2022-08-10T05:55:08.936Z,19.22
2022-08-10T05:58:15.338Z,19.54
2022-08-10T06:01:20.847Z,19.79
2022-08-10T06:04:29.749Z,19.88
2022-08-10T06:07:32.676Z,20.02
2022-08-10T06:10:38.955Z,20.02
2022-08-10T06:14:28.579Z,20.28
2022-08-10T06:17:32.077Z,20.35
2022-08-10T06:20:38.106Z,20.50
2022-08-10T06:23:41.189Z,20.74
2022-08-10T06:26:45.350Z,20.76
2022-08-10T06:29:50.203Z,20.86
2022-08-10T06:32:56.804Z,21.08
2022-08-10T06:36:02.138Z,20.88
2022-08-10T06:39:30.223Z,21.06
2022-08-10T06:42:42.899Z,21.30
2022-08-10T06:46:07.997Z,21.30
2022-08-10T06:49:13.712Z,21.73
2022-08-10T06:52:18.512Z,21.54
2022-08-10T06:55:22.982Z,21.87
2022-08-10T06:58:48.502Z,22.32
2022-08-10T07:01:59.262Z,22.06
2022-08-10T07:05:03.974Z,22.11
2022-08-10T07:08:06.650Z,22.38
2022-08-10T07:11:11.943Z,22.39
2022-08-10T07:14:18.601Z,22.43
2022-08-10T07:17:24.165Z,22.17
2022-08-10T07:20:26.931Z,22.80
2022-08-10T07:23:57.053Z,22.73
2022-08-10T07:26:56.194Z,22.66
2022-08-10T07:29:59.404Z,22.77
2022-08-10T07:33:02.578Z,23.29
2022-08-10T07:36:09.189Z,23.14
2022-08-10T07:39:13.754Z,23.01
2022-08-10T07:42:20.047Z,23.48
2022-08-10T07:45:24.640Z,23.75
2022-08-10T07:48:29.414Z,23.44
2022-08-10T07:51:36.341Z,23.60
2022-08-10T07:54:44.878Z,23.82
2022-08-10T07:57:49.917Z,24.26
2022-08-10T08:00:54.497Z,24.49
2022-08-10T08:04:10.510Z,24.37
2022-08-10T08:07:18.338Z,24.32
2022-08-10T08:10:25.942Z,23.89
2022-08-10T08:13:28.961Z,24.40
2022-08-10T08:16:33.333Z,24.22
2022-08-10T08:19:40.977Z,24.59
2022-08-10T08:24:09.034Z,25.51
2022-08-10T08:26:11.900Z,24.81
2022-08-10T08:29:17.767Z,25.08
2022-08-10T08:32:22.905Z,25.43
2022-08-10T08:35:26.418Z,25.29
2022-08-10T08:38:34.983Z,25.32
2022-08-10T08:42:08.348Z,24.90
2022-08-10T08:46:01.263Z,24.74
2022-08-10T08:50:05.046Z,25.17
2022-08-10T08:54:01.838Z,25.26
2022-08-10T08:57:08.738Z,25.79
2022-08-10T09:00:57.383Z,25.44
2022-08-10T09:04:24.971Z,25.72
2022-08-10T09:08:02.046Z,26.45
2022-08-10T09:11:19.577Z,26.13
2022-08-10T09:14:25.777Z,25.50
2022-08-10T09:17:49.058Z,25.51
2022-08-10T09:21:25.094Z,25.86
2022-08-10T09:24:46.912Z,25.71
2022-08-10T09:27:57.220Z,26.19
2022-08-10T09:31:22.793Z,26.20
2022-08-10T09:36:24.248Z,26.70
2022-08-10T09:38:44.668Z,26.47
2022-08-10T09:41:58.147Z,26.27
2022-08-10T09:45:09.427Z,25.67
2022-08-10T09:48:33.523Z,25.89
2022-08-10T09:51:53.723Z,26.15
2022-08-10T09:54:59.956Z,25.92
2022-08-10T09:58:36.900Z,26.09
2022-08-10T10:02:03.615Z,26.62
2022-08-10T10:05:25.973Z,26.26
2022-08-10T10:08:58.256Z,26.18
2022-08-10T10:12:51.535Z,26.71
2022-08-10T10:16:04.377Z,27.05
2022-08-10T10:19:27.951Z,27.48
2022-08-10T10:22:42.991Z,26.90
2022-08-10T10:26:18.327Z,26.91
2022-08-10T10:29:56.199Z,27.06
2022-08-10T10:33:03.639Z,26.61
2022-08-10T10:36:06.932Z,26.48
2022-08-10T10:39:14.951Z,26.73
2022-08-10T10:42:45.109Z,27.18
2022-08-10T10:46:11.067Z,26.39
2022-08-10T10:49:44.434Z,26.85
2022-08-10T10:53:19.325Z,25.78
2022-08-10T10:56:56.646Z,26.30
2022-08-10T11:00:11.518Z,26.94
2022-08-10T11:03:19.616Z,27.20
2022-08-10T11:06:39.858Z,27.70
2022-08-10T11:10:05.187Z,27.92
2022-08-10T11:14:25.928Z,27.30
2022-08-10T11:17:19.726Z,27.65
2022-08-10T11:20:33.355Z,27.98
2022-08-10T11:24:44.387Z,27.54
2022-08-10T11:27:23.655Z,27.17
2022-08-10T11:30:45.197Z,27.24
2022-08-10T11:34:11.645Z,27.90
2022-08-10T11:37:27.338Z,27.58
2022-08-10T11:40:39.789Z,27.21
2022-08-10T11:43:49.633Z,27.04
2022-08-10T11:46:58.081Z,27.84
2022-08-10T11:50:12.191Z,28.01
2022-08-10T11:53:18.039Z,27.29
2022-08-10T11:56:32.506Z,26.28
2022-08-10T11:59:58.523Z,26.09
2022-08-10T12:03:04.181Z,26.07
2022-08-10T12:06:10.026Z,26.70
2022-08-10T12:10:08.871Z,27.31
2022-08-10T12:12:52.461Z,27.53
2022-08-10T12:16:08.113Z,27.15
2022-08-10T12:19:24.522Z,27.38
2022-08-10T12:23:08.361Z,27.86
2022-08-10T12:26:10.344Z,27.69
2022-08-10T12:29:27.058Z,27.40
2022-08-10T12:33:03.286Z,27.57
2022-08-10T12:36:22.460Z,27.83
2022-08-10T12:39:30.663Z,28.20
2022-08-10T12:42:45.437Z,27.85
2022-08-10T12:46:30.424Z,28.29
2022-08-10T12:50:29.560Z,27.20
2022-08-10T12:53:54.924Z,27.38
2022-08-10T12:57:03.661Z,27.26
2022-08-10T13:00:17.116Z,27.49
2022-08-10T13:04:22.883Z,27.58
2022-08-10T13:06:49.987Z,27.94
2022-08-10T13:09:55.524Z,27.26
2022-08-10T13:12:59.849Z,27.80
2022-08-10T13:16:03.712Z,27.73
2022-08-10T13:19:06.709Z,27.77
2022-08-10T13:22:09.836Z,27.27
2022-08-10T13:25:12.649Z,27.68
2022-08-10T13:28:37.531Z,27.74
2022-08-10T13:32:04.264Z,28.11
2022-08-10T13:35:12.184Z,27.92
2022-08-10T13:38:20.403Z,28.26
2022-08-10T13:41:26.764Z,28.13
2022-08-10T13:44:34.585Z,27.93
2022-08-10T13:47:48.179Z,27.76
2022-08-10T13:50:53.455Z,27.58
2022-08-10T13:53:58.534Z,27.84
2022-08-10T13:57:00.940Z,27.45
2022-08-10T14:00:34.691Z,27.71
2022-08-10T14:03:35.299Z,27.23
2022-08-10T14:06:40.595Z,27.39
2022-08-10T14:09:47.818Z,27.26
2022-08-10T14:12:51.209Z,27.48
2022-08-10T14:15:53.642Z,27.21
2022-08-10T14:18:59.712Z,27.08
2022-08-10T14:22:02.213Z,27.48
2022-08-10T14:25:09.469Z,27.22
2022-08-10T14:28:11.803Z,27.47
2022-08-10T14:31:19.822Z,27.56
2022-08-10T14:36:21.386Z,27.42
2022-08-10T14:37:59.023Z,27.51
2022-08-10T14:41:05.339Z,27.10
2022-08-10T14:44:10.260Z,27.26
2022-08-10T14:47:51.305Z,27.04
2022-08-10T14:50:36.083Z,27.10
2022-08-10T14:53:38.783Z,26.76
2022-08-10T14:56:41.277Z,26.81
2022-08-10T15:00:24.609Z,26.55
2022-08-10T15:03:11.225Z,26.73
2022-08-10T15:06:34.874Z,26.58
2022-08-10T15:10:01.370Z,26.63
2022-08-10T15:13:33.596Z,26.51
2022-08-10T15:16:34.143Z,26.46
2022-08-10T15:20:02.638Z,26.62
2022-08-10T15:23:31.152Z,26.96
2022-08-10T15:26:32.733Z,26.61
2022-08-10T15:29:37.104Z,27.00
2022-08-10T15:33:21.270Z,27.07
2022-08-10T15:37:36.993Z,26.61
2022-08-10T15:40:31.096Z,26.34
2022-08-10T15:43:44.433Z,26.49
2022-08-10T15:47:02.748Z,26.30
2022-08-10T15:50:08.329Z,26.31
2022-08-10T15:53:16.786Z,26.45
2022-08-10T15:56:28.536Z,26.61
2022-08-10T15:59:39.136Z,26.55
2022-08-10T16:02:52.550Z,26.43
2022-08-10T16:06:02.379Z,26.18
2022-08-10T16:10:10.845Z,26.12
2022-08-10T16:12:59.291Z,26.13
2022-08-10T16:16:07.706Z,26.21
2022-08-10T16:19:24.128Z,26.01
2022-08-10T16:22:36.495Z,25.94
2022-08-10T16:25:51.320Z,25.95
2022-08-10T16:29:06.739Z,25.88
2022-08-10T16:32:09.105Z,25.68
2022-08-10T16:35:16.981Z,25.44
2022-08-10T16:38:20.517Z,25.61
2022-08-10T16:42:05.276Z,25.22
2022-08-10T16:44:55.195Z,25.50
2022-08-10T16:47:58.084Z,25.23
2022-08-10T16:51:02.546Z,25.33
2022-08-10T16:54:05.498Z,25.26
2022-08-10T16:57:10.373Z,25.52
2022-08-10T17:00:14.090Z,25.38
2022-08-10T17:03:22.757Z,25.28
2022-08-10T17:07:08.644Z,24.79
2022-08-10T17:10:15.658Z,24.91
2022-08-10T17:17:49.996Z,24.58
2022-08-10T18:03:36.143Z,24.52
2022-08-10T18:06:38.919Z,24.49
2022-08-10T18:09:45.181Z,24.64
2022-08-10T18:12:49.998Z,24.61
2022-08-10T18:15:52.431Z,24.48
2022-08-10T18:19:00.226Z,24.34
2022-08-10T18:22:03.735Z,23.91
2022-08-10T18:25:06.823Z,23.94
2022-08-10T18:28:14.375Z,23.93
2022-08-10T18:31:20.663Z,23.67
2022-08-10T18:34:23.115Z,23.59
2022-08-10T18:37:26.446Z,23.57
2022-08-10T18:40:35.775Z,23.04
2022-08-10T18:44:07.109Z,23.08
2022-08-10T18:47:15.401Z,23.13
2022-08-10T18:50:21.462Z,22.91
2022-08-10T18:53:48.461Z,22.87
2022-08-10T18:56:58.532Z,22.75
2022-08-10T19:00:08.772Z,22.60
2022-08-10T19:03:11.917Z,22.50
2022-08-10T19:06:49.533Z,22.29
2022-08-10T19:09:57.166Z,22.27
2022-08-10T19:13:05.153Z,22.12
2022-08-10T19:26:33.038Z,22.01
2022-08-10T19:30:08.282Z,21.90
2022-08-10T19:33:09.110Z,21.66
2022-08-10T19:36:35.136Z,21.66
2022-08-10T19:39:52.893Z,21.76
2022-08-10T19:42:59.129Z,21.61
2022-08-10T19:46:11.823Z,21.63
2022-08-10T19:49:27.737Z,21.57
2022-08-10T19:52:46.351Z,21.50
2022-08-10T19:55:55.087Z,21.46
2022-08-10T19:59:07.516Z,21.44
2022-08-10T20:02:11.950Z,21.56
2022-08-10T20:05:34.818Z,21.30
2022-08-10T20:08:48.374Z,21.20
2022-08-10T20:12:07.168Z,20.86
2022-08-10T20:15:10.786Z,20.98
2022-08-10T20:18:24.137Z,21.00
2022-08-10T20:21:30.095Z,20.95
2022-08-10T20:24:51.956Z,20.63
2022-08-10T20:28:21.805Z,20.43
2022-08-10T20:31:27.868Z,20.24
2022-08-10T20:34:46.005Z,20.16
2022-08-10T20:38:03.383Z,20.24
2022-08-10T20:41:33.251Z,20.13
2022-08-10T20:45:06.226Z,19.72
2022-08-10T20:48:29.135Z,19.80
2022-08-10T20:51:58.561Z,19.84
2022-08-10T20:55:08.974Z,19.82
2022-08-10T20:58:44.981Z,19.73
2022-08-10T21:02:13.514Z,19.64
2022-08-10T21:05:59.214Z,19.59
2022-08-10T21:09:09.557Z,19.58
2022-08-10T21:12:22.146Z,19.39
2022-08-10T21:15:41.605Z,19.39
2022-08-10T21:19:20.665Z,19.26
2022-08-10T21:22:38.358Z,19.32
2022-08-10T21:25:59.175Z,19.30
2022-08-10T21:29:37.856Z,19.07
2022-08-10T21:33:07.524Z,19.21
2022-08-10T21:36:19.296Z,19.21
2022-08-10T21:39:58.224Z,19.13
2022-08-10T21:43:50.655Z,19.07
2022-08-10T21:47:40.021Z,18.99
2022-08-10T21:51:05.965Z,19.03
2022-08-10T21:54:46.904Z,18.85
2022-08-10T21:58:34.748Z,18.59
2022-08-10T22:05:51.481Z,18.67
2022-08-10T22:09:18.347Z,18.54
2022-08-10T22:12:46.782Z,18.49
2022-08-10T22:16:17.147Z,18.55
2022-08-10T22:19:38.274Z,18.47
2022-08-10T22:23:19.215Z,18.46
2022-08-10T22:27:01.248Z,18.38
2022-08-10T22:30:25.099Z,18.43
2022-08-10T22:34:10.563Z,18.41
2022-08-10T22:37:53.146Z,18.34
2022-08-10T22:41:21.141Z,18.19
2022-08-10T22:44:42.655Z,18.14
2022-08-10T22:48:03.120Z,18.13
2022-08-10T22:51:08.826Z,18.08
2022-08-10T22:54:41.980Z,18.11
2022-08-10T22:58:06.309Z,18.07
2022-08-10T23:02:08.105Z,17.84
2022-08-10T23:05:08.742Z,17.82
2022-08-10T23:09:03.612Z,17.78
2022-08-10T23:12:11.353Z,17.74
2022-08-10T23:15:59.418Z,17.78
2022-08-10T23:19:17.326Z,17.71
2022-08-10T23:22:29.487Z,17.78
2022-08-10T23:25:33.265Z,17.71
2022-08-10T23:28:38.769Z,17.62
2022-08-10T23:32:06.518Z,17.66
2022-08-10T23:36:05.514Z,17.49
2022-08-10T23:38:35.801Z,17.44
2022-08-10T23:41:38.638Z,17.41
2022-08-10T23:44:46.666Z,17.27
2022-08-10T23:47:51.865Z,17.20
2022-08-10T23:51:03.082Z,17.01
2022-08-10T23:54:19.067Z,16.96
2022-08-10T23:57:23.574Z,16.97
